West Chester, Iowa
Current Conditions -  °F | °C
As of 8:35 AM on Sunday 23 Nov 2014 (Local Time) from KAWG Reporting Station
Light Rain Light Rain  
Wind Chill: 50°   Ceiling: 500
Heat Index: 50°   Visibility: 1.7mi
Dew Point: 50°   Wind: 10mph
Humidity: 100%   Direction: 160°SSE
Pressure: 29.59"   Gusts: NA
Location:  41.34°N, 91.82°W
Report Text: KAWG 231435Z AUTO 16009KT 1 3/4SM -RA BKN005 BKN018 OVC029 10/10 A2959 RMK AO2
Loading
Personal Weather Stations






























Interactive Weather Map New forecast layout! Learn more

10-Day Weather Forecast

Advertisements
Track Severe Weather on mobile